Time;durP1;ratioP1;P1;durP2;ratioP2;P2;SDS_P1;SDS_P2;PMS_P1;PMS_P2;Temp;Humidity;BMP_temperature;BMP_pressure;BME280_temperature;BME280_humidity;BME280_pressure;Samples;Min_cycle;Max_cycle;Signal;HPM_P1;HPM_P2
2022/02/22 00:00:14;;;;;;;29.60;6.57;;;7.30;99.90;;;;;;6206083;23;20712;-78
2022/02/22 00:02:43;;;;;;;41.00;7.87;;;7.30;99.90;;;;;;6206372;23;20180;-79
2022/02/22 00:05:11;;;;;;;31.80;6.03;;;7.30;99.90;;;;;;6206065;23;20173;-78
2022/02/22 00:07:38;;;;;;;32.00;7.90;;;7.30;99.90;;;;;;6206229;23;20271;-76
2022/02/22 00:10:06;;;;;;;34.73;5.87;;;7.30;99.90;;;;;;6206390;23;20206;-77
2022/02/22 00:12:33;;;;;;;33.27;6.83;;;7.20;99.90;;;;;;6206132;23;20158;-78
2022/02/22 00:15:01;;;;;;;26.70;5.97;;;7.20;99.90;;;;;;6205388;23;20179;-78
2022/02/22 00:17:27;;;;;;;35.60;7.10;;;7.20;99.90;;;;;;6206719;23;20644;-78
2022/02/22 00:19:55;;;;;;;32.37;6.53;;;7.20;99.90;;;;;;6207000;23;20187;-79
2022/02/22 00:22:22;;;;;;;27.97;6.60;;;7.20;99.90;;;;;;6205624;23;20267;-78
2022/02/22 00:24:49;;;;;;;38.10;8.17;;;7.20;99.90;;;;;;6206658;23;20177;-79
2022/02/22 00:27:16;;;;;;;33.90;6.23;;;7.20;99.90;;;;;;6206511;23;20181;-78
2022/02/22 00:29:43;;;;;;;36.43;8.33;;;7.20;99.90;;;;;;6205818;23;20185;-79
2022/02/22 00:32:09;;;;;;;43.33;7.30;;;7.20;99.90;;;;;;6206026;23;20586;-79
2022/02/22 00:34:36;;;;;;;22.27;4.77;;;7.10;99.90;;;;;;6206102;23;20177;-78
2022/02/22 00:37:05;;;;;;;28.70;6.00;;;7.10;99.90;;;;;;6205283;23;20201;-78
2022/02/22 00:39:31;;;;;;;26.77;5.60;;;7.10;99.90;;;;;;6207319;23;20178;-77
2022/02/22 00:41:58;;;;;;;31.17;5.53;;;7.10;99.90;;;;;;6205852;23;20185;-79
2022/02/22 00:44:27;;;;;;;27.00;6.73;;;7.10;99.90;;;;;;6206660;23;20158;-82
2022/02/22 00:46:53;;;;;;;33.03;6.87;;;7.10;99.90;;;;;;6205890;23;20173;-79
2022/02/22 00:49:20;;;;;;;27.40;5.93;;;7.10;99.90;;;;;;6207002;23;20166;-77
2022/02/22 00:51:47;;;;;;;30.47;6.57;;;7.10;99.90;;;;;;6206540;23;20184;-76
2022/02/22 00:54:15;;;;;;;26.03;5.73;;;7.10;99.90;;;;;;6205845;23;20182;-79
2022/02/22 00:56:42;;;;;;;29.47;6.47;;;7.10;99.90;;;;;;6203744;23;20429;-77
2022/02/22 00:59:09;;;;;;;37.63;7.07;;;7.00;99.90;;;;;;6205723;23;20178;-78
2022/02/22 01:01:35;;;;;;;26.60;6.10;;;7.00;99.90;;;;;;6205238;23;20573;-78
2022/02/22 01:04:02;;;;;;;24.00;5.93;;;7.10;99.90;;;;;;6203270;23;20174;-78
2022/02/22 01:06:29;;;;;;;20.43;4.53;;;7.00;99.90;;;;;;6204956;23;20171;-77
2022/02/22 01:08:56;;;;;;;29.53;6.60;;;7.00;99.90;;;;;;6204865;23;20189;-78
2022/02/22 01:11:24;;;;;;;39.20;6.67;;;7.00;99.90;;;;;;6203995;23;20206;-77
2022/02/22 01:13:51;;;;;;;27.97;7.07;;;7.00;99.90;;;;;;6204801;23;20174;-77
2022/02/22 01:16:18;;;;;;;27.47;6.27;;;7.00;99.90;;;;;;6203737;23;20205;-78
2022/02/22 01:18:45;;;;;;;29.97;5.57;;;6.90;99.90;;;;;;6203107;23;20174;-78
2022/02/22 01:21:11;;;;;;;29.37;5.37;;;6.90;99.90;;;;;;6205356;23;20166;-78
2022/02/22 01:23:38;;;;;;;35.13;7.17;;;6.90;99.90;;;;;;6205319;23;20181;-78
2022/02/22 01:26:05;;;;;;;31.83;6.17;;;6.90;99.90;;;;;;6204183;23;20242;-78
2022/02/22 01:28:33;;;;;;;39.13;6.57;;;6.90;99.90;;;;;;6205409;23;20174;-79
2022/02/22 01:31:00;;;;;;;25.20;6.10;;;6.90;99.90;;;;;;6204047;23;20174;-77
2022/02/22 01:33:27;;;;;;;25.43;5.07;;;6.90;99.90;;;;;;6205284;23;20162;-79
2022/02/22 01:35:54;;;;;;;25.83;5.30;;;6.90;99.90;;;;;;6204371;23;20510;-76
2022/02/22 01:38:20;;;;;;;28.27;5.10;;;6.90;99.90;;;;;;6203997;23;20205;-78
2022/02/22 01:40:47;;;;;;;28.60;6.00;;;6.90;99.90;;;;;;6203560;23;20174;-78
2022/02/22 01:43:14;;;;;;;25.40;5.17;;;6.80;99.90;;;;;;6204239;23;20869;-77
2022/02/22 01:45:43;;;;;;;34.23;8.70;;;6.90;99.90;;;;;;6203669;23;20186;-79
2022/02/22 01:48:10;;;;;;;28.60;4.80;;;6.90;99.90;;;;;;6203725;23;20173;-78
2022/02/22 01:50:37;;;;;;;34.57;5.47;;;6.90;99.90;;;;;;6204563;23;20177;-78
2022/02/22 01:53:03;;;;;;;37.67;8.03;;;6.90;99.90;;;;;;6203134;23;20185;-79
2022/02/22 01:55:32;;;;;;;26.87;6.07;;;6.90;99.90;;;;;;6204321;23;20598;-78
2022/02/22 01:58:00;;;;;;;28.27;5.70;;;6.80;99.90;;;;;;6203945;23;20294;-78
2022/02/22 02:00:27;;;;;;;25.93;5.80;;;6.90;99.90;;;;;;6203780;23;20174;-79
2022/02/22 02:02:55;;;;;;;36.70;6.17;;;6.90;99.90;;;;;;6204257;23;20227;-79
2022/02/22 02:05:24;;;;;;;21.90;6.13;;;6.90;99.90;;;;;;6203854;23;20492;-79
2022/02/22 02:07:51;;;;;;;21.73;4.73;;;6.90;99.90;;;;;;6202730;23;20253;-78
2022/02/22 02:10:18;;;;;;;27.50;5.77;;;6.80;99.90;;;;;;6203921;23;20206;-78
2022/02/22 02:12:44;;;;;;;41.07;8.77;;;6.80;99.90;;;;;;6203461;23;20185;-79
2022/02/22 02:15:11;;;;;;;34.33;6.30;;;6.80;99.90;;;;;;6203542;23;20198;-77
2022/02/22 02:17:38;;;;;;;36.33;5.83;;;6.80;99.90;;;;;;6204719;23;20194;-78
2022/02/22 02:20:09;;;;;;;28.87;7.17;;;6.90;99.90;;;;;;6203613;23;20173;-77
2022/02/22 02:22:38;;;;;;;35.40;6.33;;;6.80;99.90;;;;;;6204464;23;20173;-77
2022/02/22 02:25:06;;;;;;;26.43;5.83;;;6.80;99.90;;;;;;6203705;23;20597;-78
2022/02/22 02:27:34;;;;;;;26.90;6.37;;;6.90;99.90;;;;;;6202944;23;20174;-77
2022/02/22 02:30:01;;;;;;;27.23;5.33;;;6.90;99.90;;;;;;6203155;23;20558;-77
2022/02/22 02:32:28;;;;;;;32.33;6.07;;;6.90;99.90;;;;;;6204981;23;20208;-78
2022/02/22 02:34:55;;;;;;;26.60;5.67;;;6.90;99.90;;;;;;6202669;23;20158;-77
2022/02/22 02:37:21;;;;;;;31.53;7.23;;;6.90;99.90;;;;;;6204261;23;20197;-78
2022/02/22 02:39:50;;;;;;;36.70;6.80;;;6.90;99.90;;;;;;6203744;23;20178;-77
2022/02/22 02:42:18;;;;;;;28.47;4.73;;;6.90;99.90;;;;;;6202641;23;20173;-78
2022/02/22 02:44:46;;;;;;;24.80;5.20;;;6.90;99.90;;;;;;6205125;23;20181;-79
2022/02/22 02:47:14;;;;;;;24.93;5.57;;;6.90;99.90;;;;;;6203437;23;20865;-77
2022/02/22 02:49:44;;;;;;;29.17;6.27;;;6.90;99.90;;;;;;6202754;23;20574;-77
2022/02/22 02:52:11;;;;;;;22.43;5.63;;;6.90;99.90;;;;;;6203860;23;20177;-77
2022/02/22 02:54:38;;;;;;;27.73;5.83;;;6.90;99.90;;;;;;6204662;23;20181;-78
2022/02/22 02:57:06;;;;;;;27.57;4.90;;;6.90;99.90;;;;;;6202979;23;20202;-79
2022/02/22 02:59:33;;;;;;;39.73;7.70;;;6.90;99.90;;;;;;6203996;23;20181;-78
2022/02/22 03:02:00;;;;;;;22.73;4.80;;;6.80;99.90;;;;;;6203129;23;20177;-78
2022/02/22 03:04:27;;;;;;;26.73;6.37;;;6.80;99.90;;;;;;6203584;23;20185;-77
2022/02/22 03:06:54;;;;;;;26.83;5.90;;;6.80;99.90;;;;;;6204091;23;20410;-78
2022/02/22 03:09:21;;;;;;;33.67;5.30;;;6.80;99.90;;;;;;6202422;23;20205;-79
2022/02/22 03:11:48;;;;;;;28.97;5.00;;;6.80;99.90;;;;;;6202924;23;20197;-78
2022/02/22 03:14:17;;;;;;;21.07;4.93;;;6.80;99.90;;;;;;6204039;23;20180;-79
2022/02/22 03:16:44;;;;;;;22.83;4.30;;;6.80;99.90;;;;;;6201434;23;20197;-77
2022/02/22 03:19:11;;;;;;;32.20;5.27;;;6.90;99.90;;;;;;6202812;23;20175;-78
2022/02/22 03:21:39;;;;;;;26.20;5.53;;;6.90;99.90;;;;;;6203643;23;20180;-78
2022/02/22 03:24:06;;;;;;;26.60;6.03;;;6.90;99.90;;;;;;6203276;23;20261;-78
2022/02/22 03:26:33;;;;;;;22.87;4.67;;;6.80;99.90;;;;;;6203986;23;20166;-77
2022/02/22 03:29:00;;;;;;;23.93;5.07;;;6.80;99.90;;;;;;6203161;23;20751;-78
2022/02/22 03:31:28;;;;;;;36.33;6.20;;;6.90;99.90;;;;;;6203842;23;20178;-78
2022/02/22 03:33:55;;;;;;;25.43;4.97;;;6.90;99.90;;;;;;6203232;23;20174;-78
2022/02/22 03:36:23;;;;;;;23.67;4.63;;;6.90;99.90;;;;;;6201411;23;20633;-78
2022/02/22 03:38:50;;;;;;;32.60;5.73;;;6.90;99.90;;;;;;6202569;23;20185;-78
2022/02/22 03:41:17;;;;;;;28.70;5.30;;;6.90;99.90;;;;;;6202972;23;20185;-78
2022/02/22 03:43:44;;;;;;;20.17;4.23;;;6.90;99.90;;;;;;6202802;23;20178;-77
2022/02/22 03:46:11;;;;;;;29.93;5.07;;;6.80;99.90;;;;;;6203503;23;20266;-78
2022/02/22 03:48:40;;;;;;;31.77;6.13;;;6.80;99.90;;;;;;6203875;23;20189;-78
2022/02/22 03:51:07;;;;;;;26.90;4.73;;;6.90;99.90;;;;;;6203085;23;20166;-78
2022/02/22 03:53:34;;;;;;;26.90;4.23;;;6.80;99.90;;;;;;6202907;23;20181;-78
2022/02/22 03:56:01;;;;;;;23.40;3.93;;;6.80;99.90;;;;;;6202389;23;20181;-78
2022/02/22 03:58:27;;;;;;;24.90;4.43;;;6.80;99.90;;;;;;6203431;23;20194;-78
2022/02/22 04:00:54;;;;;;;22.60;4.47;;;6.80;99.90;;;;;;6202800;23;20178;-78
2022/02/22 04:03:21;;;;;;;28.60;4.93;;;6.80;99.90;;;;;;6202722;23;20173;-77
2022/02/22 04:05:49;;;;;;;18.47;4.47;;;6.80;99.90;;;;;;6202166;23;20173;-77
2022/02/22 04:08:16;;;;;;;22.40;4.40;;;6.80;99.90;;;;;;6204179;23;20176;-77
2022/02/22 04:10:43;;;;;;;27.23;4.53;;;6.80;99.90;;;;;;6202677;23;20277;-78
2022/02/22 04:13:10;;;;;;;25.87;5.30;;;6.70;99.90;;;;;;6202791;23;20178;-77
2022/02/22 04:15:37;;;;;;;21.40;3.50;;;6.70;99.90;;;;;;6202945;23;20190;-78
2022/02/22 04:18:03;;;;;;;20.53;4.03;;;6.70;99.90;;;;;;6202319;23;20198;-77
2022/02/22 04:20:30;;;;;;;27.93;5.03;;;6.70;99.90;;;;;;6202642;23;20178;-78
2022/02/22 04:22:58;;;;;;;24.43;4.47;;;6.70;99.90;;;;;;6202578;23;20353;-78
2022/02/22 04:25:25;;;;;;;30.90;4.87;;;6.70;99.90;;;;;;6203419;23;20174;-78
2022/02/22 04:27:52;;;;;;;33.87;4.50;;;6.80;99.90;;;;;;6201715;23;20166;-78
2022/02/22 04:30:19;;;;;;;26.57;4.77;;;6.90;99.90;;;;;;6203873;23;20178;-78
2022/02/22 04:32:46;;;;;;;17.83;4.47;;;6.90;99.90;;;;;;6204905;23;20181;-78
2022/02/22 04:35:13;;;;;;;18.40;3.90;;;6.80;99.90;;;;;;6204236;23;20236;-77
2022/02/22 04:37:40;;;;;;;23.80;4.83;;;6.80;99.90;;;;;;6205088;23;20201;-78
2022/02/22 04:40:09;;;;;;;28.53;5.10;;;6.70;99.90;;;;;;6204883;23;20653;-77
2022/02/22 04:42:36;;;;;;;28.30;6.03;;;6.70;99.90;;;;;;6204577;23;20181;-77
2022/02/22 04:45:04;;;;;;;28.33;6.50;;;6.70;99.90;;;;;;6203598;23;20398;-77
2022/02/22 04:47:31;;;;;;;16.67;4.50;;;6.80;99.90;;;;;;6205000;23;20178;-78
2022/02/22 04:49:58;;;;;;;27.77;5.23;;;6.70;99.90;;;;;;6204133;23;20812;-77
2022/02/22 04:52:24;;;;;;;23.63;5.63;;;6.70;99.90;;;;;;6205245;23;20178;-78
2022/02/22 04:54:51;;;;;;;24.27;4.80;;;6.70;99.90;;;;;;6204705;23;20178;-78
2022/02/22 04:57:19;;;;;;;18.77;4.87;;;6.70;99.90;;;;;;6203981;23;20170;-76
2022/02/22 04:59:46;;;;;;;18.37;4.43;;;6.80;99.90;;;;;;6204904;23;20173;-77
2022/02/22 05:02:13;;;;;;;24.47;5.17;;;6.80;99.90;;;;;;6203900;23;20173;-78
2022/02/22 05:04:40;;;;;;;14.13;3.47;;;6.90;99.90;;;;;;6204305;23;20185;-77
2022/02/22 05:07:07;;;;;;;22.83;4.30;;;6.80;99.90;;;;;;6204450;23;20170;-77
2022/02/22 05:09:34;;;;;;;24.57;5.77;;;6.80;99.90;;;;;;6204057;23;20174;-78
2022/02/22 05:12:00;;;;;;;23.70;5.93;;;6.70;99.90;;;;;;6203587;23;20204;-77
2022/02/22 05:14:29;;;;;;;20.67;4.40;;;6.70;99.90;;;;;;6204307;23;20174;-78
2022/02/22 05:16:56;;;;;;;19.40;4.50;;;6.60;99.90;;;;;;6203169;23;20225;-77
2022/02/22 05:19:22;;;;;;;17.77;3.67;;;6.50;99.90;;;;;;6203856;23;20681;-77
2022/02/22 05:21:49;;;;;;;16.83;3.43;;;6.50;99.90;;;;;;6204647;23;20178;-77
2022/02/22 05:24:16;;;;;;;22.60;4.10;;;6.50;99.90;;;;;;6203684;23;20174;-77
2022/02/22 05:26:43;;;;;;;13.60;3.60;;;6.50;99.90;;;;;;6204472;23;20178;-77
2022/02/22 05:29:10;;;;;;;21.33;4.10;;;6.50;99.90;;;;;;6203955;23;20849;-78
2022/02/22 05:31:38;;;;;;;23.33;3.67;;;6.50;99.90;;;;;;6204430;23;20177;-78
2022/02/22 05:34:05;;;;;;;14.50;3.70;;;6.50;99.90;;;;;;6204113;23;20180;-78
2022/02/22 05:36:31;;;;;;;18.20;3.33;;;6.40;99.90;;;;;;6205145;23;20864;-78
2022/02/22 05:38:58;;;;;;;24.43;4.90;;;6.40;99.90;;;;;;6203114;23;20187;-77
2022/02/22 05:41:25;;;;;;;16.00;3.23;;;6.40;99.90;;;;;;6201315;23;20170;-77
2022/02/22 05:43:52;;;;;;;14.77;3.50;;;6.30;99.90;;;;;;6200889;23;20174;-78
2022/02/22 05:46:20;;;;;;;12.83;3.43;;;6.30;99.90;;;;;;6201382;23;20174;-78
2022/02/22 05:48:48;;;;;;;16.27;3.57;;;6.30;99.90;;;;;;6201230;23;20174;-77
2022/02/22 05:51:16;;;;;;;15.37;3.83;;;6.30;99.90;;;;;;6201994;23;20170;-77
2022/02/22 05:53:44;;;;;;;19.60;5.20;;;6.20;99.90;;;;;;6200018;23;20171;-79
2022/02/22 05:56:11;;;;;;;21.90;6.03;;;6.20;99.90;;;;;;6200246;23;20177;-78
2022/02/22 05:58:38;;;;;;;14.83;5.70;;;6.20;99.90;;;;;;6201109;23;20194;-78
2022/02/22 06:01:04;;;;;;;20.87;5.90;;;6.20;99.90;;;;;;6201254;23;20443;-79
2022/02/22 06:03:31;;;;;;;24.07;4.73;;;6.10;99.90;;;;;;6201890;23;20685;-78
2022/02/22 06:06:00;;;;;;;16.97;4.27;;;6.10;99.90;;;;;;6199672;23;20845;-78
2022/02/22 06:08:29;;;;;;;13.03;4.23;;;6.10;99.90;;;;;;6202118;23;20170;-78
2022/02/22 06:10:56;;;;;;;15.80;3.60;;;6.10;99.90;;;;;;6200507;23;20271;-78
2022/02/22 06:13:23;;;;;;;16.13;3.40;;;6.10;99.90;;;;;;6200260;23;20698;-78
2022/02/22 06:15:50;;;;;;;17.60;3.90;;;6.20;99.90;;;;;;6201978;23;20189;-78
2022/02/22 06:18:17;;;;;;;15.80;4.10;;;6.20;99.90;;;;;;6203760;23;20208;-79
2022/02/22 06:20:45;;;;;;;16.90;3.50;;;6.30;99.90;;;;;;6204426;23;20185;-77
2022/02/22 06:23:13;;;;;;;12.83;3.30;;;6.30;99.90;;;;;;6203312;23;20559;-78
2022/02/22 06:25:40;;;;;;;17.60;3.57;;;6.40;99.90;;;;;;6204840;23;20190;-77
2022/02/22 06:28:07;;;;;;;16.83;4.03;;;6.40;99.90;;;;;;6203964;23;20174;-78
2022/02/22 06:30:34;;;;;;;22.47;4.17;;;6.40;99.90;;;;;;6204128;23;20197;-79
2022/02/22 06:33:01;;;;;;;22.90;5.10;;;6.40;99.90;;;;;;6203171;23;20598;-78
2022/02/22 06:35:28;;;;;;;29.13;5.83;;;6.40;99.90;;;;;;6203234;23;20173;-77
2022/02/22 06:37:55;;;;;;;18.83;4.93;;;6.40;99.90;;;;;;6204187;23;20178;-76
2022/02/22 06:40:23;;;;;;;25.17;5.77;;;6.40;99.90;;;;;;6202053;23;20181;-78
2022/02/22 06:42:50;;;;;;;25.40;5.73;;;6.40;99.90;;;;;;6203388;23;20177;-78
2022/02/22 06:45:16;;;;;;;30.20;7.83;;;6.40;99.90;;;;;;6203902;23;20178;-77
2022/02/22 06:47:43;;;;;;;35.80;8.47;;;6.40;99.90;;;;;;6203324;23;20185;-79
2022/02/22 06:50:12;;;;;;;26.80;8.17;;;6.40;99.90;;;;;;6202999;23;20178;-78
2022/02/22 06:52:40;;;;;;;30.43;6.53;;;6.40;99.90;;;;;;6203716;23;20178;-77
2022/02/22 06:55:09;;;;;;;30.13;6.83;;;6.40;99.90;;;;;;6202607;23;20181;-78
2022/02/22 06:57:38;;;;;;;41.70;7.00;;;6.50;99.90;;;;;;6203196;23;20185;-78
2022/02/22 07:00:09;;;;;;;37.20;8.00;;;6.50;99.90;;;;;;6203398;23;20445;-77
2022/02/22 07:02:37;;;;;;;32.20;7.50;;;6.60;99.90;;;;;;6203331;23;20177;-79
2022/02/22 07:05:05;;;;;;;30.70;7.33;;;6.60;99.90;;;;;;6203030;23;20201;-79
2022/02/22 07:07:33;;;;;;;27.53;6.30;;;6.60;99.90;;;;;;6204100;23;20182;-78
2022/02/22 07:10:00;;;;;;;31.97;7.23;;;6.60;99.90;;;;;;6202328;23;20174;-77
2022/02/22 07:12:26;;;;;;;34.53;7.03;;;6.60;99.90;;;;;;6203431;23;20177;-77
2022/02/22 07:14:53;;;;;;;32.47;6.80;;;6.70;99.90;;;;;;6203065;23;20182;-80
2022/02/22 07:17:21;;;;;;;38.30;6.80;;;6.70;99.90;;;;;;6202441;23;20182;-80
2022/02/22 07:19:48;;;;;;;40.17;7.00;;;6.70;99.90;;;;;;6203764;23;20198;-78
2022/02/22 07:22:15;;;;;;;35.77;8.60;;;6.80;99.90;;;;;;6203285;23;20181;-78
2022/02/22 07:24:42;;;;;;;29.70;6.73;;;6.80;99.90;;;;;;6202458;23;20962;-78
2022/02/22 07:27:09;;;;;;;22.70;6.20;;;6.80;99.90;;;;;;6202630;23;20172;-79
2022/02/22 07:29:35;;;;;;;36.07;9.20;;;6.90;99.90;;;;;;6203069;23;20162;-79
2022/02/22 07:32:02;;;;;;;40.80;8.10;;;6.90;99.90;;;;;;6202495;23;20189;-78
2022/02/22 07:34:31;;;;;;;41.20;8.77;;;6.90;99.90;;;;;;6203935;23;20169;-79
2022/02/22 07:36:58;;;;;;;40.87;7.60;;;7.00;99.90;;;;;;6202651;23;20166;-78
2022/02/22 07:39:25;;;;;;;44.00;8.97;;;6.90;99.90;;;;;;6204091;23;20606;-78
2022/02/22 07:41:51;;;;;;;33.17;7.37;;;7.00;99.90;;;;;;6203293;23;20178;-78
2022/02/22 07:44:18;;;;;;;46.90;8.20;;;7.00;99.90;;;;;;6202666;23;20174;-78
2022/02/22 07:46:45;;;;;;;39.27;8.77;;;7.00;99.90;;;;;;6202874;23;20598;-79
2022/02/22 07:49:12;;;;;;;37.63;7.30;;;7.10;99.90;;;;;;6221815;23;20216;-78
2022/02/22 07:51:40;;;;;;;41.03;7.47;;;7.10;99.90;;;;;;6233652;23;20177;-77
2022/02/22 07:54:07;;;;;;;41.50;7.77;;;7.20;99.90;;;;;;6233657;23;20193;-78
2022/02/22 07:56:34;;;;;;;36.77;7.27;;;7.20;99.90;;;;;;6234321;23;20177;-78
2022/02/22 07:59:01;;;;;;;49.70;9.00;;;7.20;99.90;;;;;;6232680;23;20204;-80
2022/02/22 08:01:28;;;;;;;39.20;6.70;;;7.30;99.90;;;;;;6233934;23;20181;-78
2022/02/22 08:03:54;;;;;;;35.07;8.83;;;7.30;99.90;;;;;;6232004;23;20172;-79
2022/02/22 08:06:21;;;;;;;41.00;7.77;;;7.40;99.90;;;;;;6234732;23;20882;-78
2022/02/22 08:08:49;;;;;;;44.50;8.97;;;7.40;99.90;;;;;;6235819;23;20319;-79
2022/02/22 08:15:02;;;;;;;28.90;6.47;;;7.60;99.90;;;;;;5982556;23;20251;-78
2022/02/22 08:17:29;;;;;;;39.67;7.77;;;7.70;99.90;;;;;;6081730;23;20185;-79
2022/02/22 08:19:56;;;;;;;39.60;7.13;;;7.70;99.90;;;;;;6204259;23;20189;-78
2022/02/22 08:22:23;;;;;;;40.10;7.17;;;7.70;99.90;;;;;;6205347;23;20577;-79
2022/02/22 08:24:51;;;;;;;30.77;6.77;;;7.70;99.90;;;;;;6206060;23;20178;-79
2022/02/22 08:27:19;;;;;;;31.10;6.63;;;7.80;99.90;;;;;;6202863;23;20583;-78
2022/02/22 08:29:45;;;;;;;38.97;7.47;;;7.80;99.90;;;;;;6206600;23;20182;-79
2022/02/22 08:32:12;;;;;;;36.23;6.77;;;7.80;99.90;;;;;;6207917;23;20182;-77
2022/02/22 08:34:39;;;;;;;38.30;8.10;;;7.80;99.90;;;;;;6207308;23;20244;-78
2022/02/22 08:37:06;;;;;;;31.37;7.63;;;7.90;99.90;;;;;;6208124;23;20197;-77
2022/02/22 08:39:33;;;;;;;34.70;8.53;;;7.90;99.90;;;;;;6206600;23;20193;-78
2022/02/22 08:42:06;;;;;;;32.83;7.10;;;8.00;99.90;;;;;;6205301;23;20181;-77
2022/02/22 08:44:33;;;;;;;35.00;7.03;;;8.00;99.90;;;;;;6205818;23;20181;-78
2022/02/22 08:47:00;;;;;;;34.93;6.87;;;8.10;99.90;;;;;;6203732;23;20166;-78
2022/02/22 08:49:27;;;;;;;27.17;5.73;;;8.20;99.90;;;;;;6204300;23;20209;-77
2022/02/22 08:51:53;;;;;;;27.97;6.17;;;8.30;99.90;;;;;;6205846;23;20212;-78
2022/02/22 08:54:20;;;;;;;31.17;7.40;;;8.30;99.90;;;;;;6204964;23;20178;-77
2022/02/22 08:56:47;;;;;;;32.13;7.20;;;8.30;99.90;;;;;;6204259;23;20174;-78
2022/02/22 08:59:15;;;;;;;33.77;6.20;;;8.30;99.90;;;;;;6205502;23;20202;-77
2022/02/22 09:01:42;;;;;;;31.43;7.30;;;8.40;99.90;;;;;;6204077;23;20254;-77
2022/02/22 09:04:09;;;;;;;28.10;6.90;;;8.40;99.90;;;;;;6205230;23;20181;-77
2022/02/22 09:06:35;;;;;;;33.83;7.30;;;8.40;99.90;;;;;;6205961;23;20174;-77
2022/02/22 09:09:02;;;;;;;33.80;7.90;;;8.40;99.90;;;;;;6205292;23;20177;-77
2022/02/22 09:11:29;;;;;;;26.10;6.03;;;8.50;99.90;;;;;;6206505;23;20181;-79
2022/02/22 09:13:56;;;;;;;35.00;7.77;;;8.50;99.90;;;;;;6204919;23;20566;-79
2022/02/22 09:16:24;;;;;;;38.10;7.73;;;8.60;99.90;;;;;;6202820;23;20209;-77
2022/02/22 09:18:53;;;;;;;27.57;6.30;;;8.60;99.90;;;;;;6205283;23;20190;-77
2022/02/22 09:21:20;;;;;;;31.20;6.70;;;8.70;99.90;;;;;;6205179;23;20240;-77
2022/02/22 09:23:46;;;;;;;30.13;6.30;;;8.70;99.90;;;;;;6203644;23;20805;-78
2022/02/22 09:26:13;;;;;;;33.23;7.30;;;8.70;99.90;;;;;;6205086;23;20185;-77
2022/02/22 09:28:41;;;;;;;27.70;6.53;;;8.70;99.90;;;;;;6204801;23;20186;-77
2022/02/22 09:31:08;;;;;;;31.73;7.83;;;8.70;99.90;;;;;;6203330;23;20217;-77
2022/02/22 09:33:36;;;;;;;34.03;6.90;;;8.70;99.90;;;;;;6205197;23;20190;-77
2022/02/22 09:36:03;;;;;;;37.17;7.03;;;8.70;99.90;;;;;;6203536;23;20198;-76
2022/02/22 09:38:30;;;;;;;32.50;8.27;;;8.70;99.90;;;;;;6204120;23;20579;-78
2022/02/22 09:41:00;;;;;;;33.60;7.30;;;8.70;99.90;;;;;;6205254;23;20205;-78
2022/02/22 09:43:27;;;;;;;29.43;6.77;;;8.60;99.90;;;;;;6203522;23;20181;-77
2022/02/22 09:45:56;;;;;;;29.23;6.53;;;8.70;99.90;;;;;;6204049;23;20487;-78
2022/02/22 09:48:22;;;;;;;28.73;6.67;;;8.70;99.90;;;;;;6204998;23;20202;-79
2022/02/22 09:50:50;;;;;;;32.03;6.10;;;8.60;99.90;;;;;;6203553;23;20178;-77
2022/02/22 09:53:17;;;;;;;25.20;6.00;;;8.70;99.90;;;;;;6204549;23;20189;-80
2022/02/22 09:55:44;;;;;;;33.50;6.33;;;8.70;99.90;;;;;;6204219;23;20178;-77
2022/02/22 09:58:11;;;;;;;31.90;6.20;;;8.70;99.90;;;;;;6203519;23;20182;-78
2022/02/22 10:00:37;;;;;;;25.83;6.57;;;8.70;99.90;;;;;;6203857;23;20204;-77
2022/02/22 10:03:15;;;;;;;23.93;5.93;;;8.70;99.90;;;;;;6204133;23;20893;-76
2022/02/22 10:05:54;;;;;;;31.70;7.13;;;8.70;99.90;;;;;;6201461;23;20464;-79
2022/02/22 10:08:26;;;;;;;31.27;7.83;;;8.70;99.90;;;;;;6204084;23;20206;-76
2022/02/22 10:11:02;;;;;;;25.90;6.20;;;8.70;99.90;;;;;;6204312;23;20182;-77
2022/02/22 10:13:29;;;;;;;23.67;6.47;;;8.70;99.90;;;;;;6203637;23;20178;-77
2022/02/22 10:15:58;;;;;;;34.10;8.83;;;8.60;99.90;;;;;;6203707;23;20198;-77
2022/02/22 10:18:25;;;;;;;32.50;7.63;;;8.60;99.90;;;;;;6203783;23;20700;-79
2022/02/22 10:20:52;;;;;;;22.60;6.53;;;8.50;99.90;;;;;;6204009;23;20438;-78
2022/02/22 10:23:29;;;;;;;24.33;5.60;;;8.50;99.90;;;;;;6204121;23;20281;-76
2022/02/22 10:25:57;;;;;;;34.00;7.47;;;8.50;99.90;;;;;;6203104;23;20188;-78
2022/02/22 10:28:24;;;;;;;42.90;9.13;;;8.50;99.90;;;;;;6205388;23;20193;-78
2022/02/22 10:30:53;;;;;;;30.77;8.13;;;8.40;99.90;;;;;;6204451;23;20599;-75
2022/02/22 10:33:21;;;;;;;36.80;8.40;;;8.40;99.90;;;;;;6203624;23;20280;-80
2022/02/22 10:35:51;;;;;;;40.80;9.40;;;8.30;99.90;;;;;;6203288;23;20239;-80
2022/02/22 10:38:21;;;;;;;31.80;7.63;;;8.40;99.90;;;;;;6202903;23;20178;-78
2022/02/22 10:40:57;;;;;;;43.10;8.30;;;8.30;99.90;;;;;;6203199;23;20552;-76
2022/02/22 10:43:27;;;;;;;37.00;9.77;;;8.40;99.90;;;;;;6204611;23;20181;-77
2022/02/22 10:45:56;;;;;;;48.00;9.93;;;8.30;99.90;;;;;;6203134;23;20551;-79
2022/02/22 10:48:34;;;;;;;37.93;10.17;;;8.40;99.90;;;;;;6203153;23;20194;-79
2022/02/22 10:51:02;;;;;;;29.43;7.50;;;8.30;99.90;;;;;;6203490;23;20189;-77
2022/02/22 10:53:32;;;;;;;44.23;9.07;;;8.40;99.90;;;;;;6204109;23;20182;-79
2022/02/22 10:56:02;;;;;;;42.63;10.97;;;8.30;99.90;;;;;;6205536;23;20578;-78
2022/02/22 10:58:30;;;;;;;43.70;9.30;;;8.40;99.90;;;;;;6203976;23;20185;-78
2022/02/22 11:00:58;;;;;;;34.97;9.47;;;8.40;99.90;;;;;;6201755;23;20276;-79
2022/02/22 11:03:25;;;;;;;37.67;9.00;;;8.30;99.90;;;;;;6204178;23;20185;-77
2022/02/22 11:05:53;;;;;;;44.23;9.83;;;8.40;99.90;;;;;;6203259;23;20606;-80
2022/02/22 11:08:28;;;;;;;44.67;9.47;;;8.50;99.90;;;;;;6203421;23;20171;-77
2022/02/22 11:11:02;;;;;;;48.50;9.07;;;8.50;99.90;;;;;;6203750;23;20173;-78
2022/02/22 11:13:31;;;;;;;44.90;9.67;;;8.50;99.90;;;;;;6204514;23;20170;-76
2022/02/22 11:16:10;;;;;;;35.37;8.83;;;8.50;99.90;;;;;;6202873;23;20634;-77
2022/02/22 11:18:48;;;;;;;48.47;11.20;;;8.50;99.90;;;;;;6205092;23;20177;-77
2022/02/22 11:21:16;;;;;;;35.97;8.47;;;8.60;99.90;;;;;;6204344;23;20681;-76
2022/02/22 11:23:43;;;;;;;38.87;11.20;;;8.60;99.90;;;;;;6204252;23;20178;-77
2022/02/22 11:26:13;;;;;;;57.13;11.37;;;8.60;99.90;;;;;;6204431;23;20170;-75
2022/02/22 11:28:45;;;;;;;59.20;12.50;;;8.70;99.90;;;;;;6202645;23;20699;-76
2022/02/22 11:31:13;;;;;;;46.03;10.37;;;8.70;99.90;;;;;;6204760;23;20170;-76
2022/02/22 11:33:42;;;;;;;53.73;11.67;;;8.80;99.90;;;;;;6203656;23;20174;-75
2022/02/22 11:36:09;;;;;;;49.30;11.20;;;8.80;99.90;;;;;;6199892;23;20174;-76
2022/02/22 11:38:45;;;;;;;53.90;12.80;;;8.80;99.90;;;;;;6203825;23;20194;-78
2022/02/22 11:41:17;;;;;;;46.10;11.63;;;8.90;99.90;;;;;;6203597;23;20205;-75
2022/02/22 11:44:01;;;;;;;41.57;10.00;;;8.90;99.90;;;;;;6200520;23;20655;-75
2022/02/22 11:46:44;;;;;;;44.73;9.80;;;8.90;99.90;;;;;;6199612;23;20178;-76
2022/02/22 11:49:13;;;;;;;45.93;10.23;;;8.90;99.90;;;;;;6199491;23;20261;-77
2022/02/22 11:51:45;;;;;;;45.77;10.80;;;8.90;99.90;;;;;;6202489;23;20192;-78
2022/02/22 11:54:14;;;;;;;44.33;10.37;;;8.90;99.90;;;;;;6204126;23;20185;-78
2022/02/22 11:56:42;;;;;;;43.57;10.03;;;9.00;99.90;;;;;;6202985;23;20181;-76
2022/02/22 11:59:22;;;;;;;52.13;9.57;;;9.10;99.90;;;;;;6202737;23;20181;-77
2022/02/22 12:01:50;;;;;;;45.53;9.37;;;9.10;99.90;;;;;;6203029;23;20194;-76
2022/02/22 12:04:22;;;;;;;43.50;10.47;;;9.10;99.90;;;;;;6202638;23;20185;-76
2022/02/22 12:06:49;;;;;;;52.23;10.47;;;9.20;99.90;;;;;;6203425;23;20181;-77
2022/02/22 12:09:16;;;;;;;50.00;12.73;;;9.20;99.90;;;;;;6204438;23;20167;-79
2022/02/22 12:11:43;;;;;;;40.10;10.40;;;9.20;99.90;;;;;;6203445;23;20171;-78
2022/02/22 12:14:14;;;;;;;35.20;9.27;;;9.30;99.90;;;;;;6204073;23;20174;-79
2022/02/22 12:16:45;;;;;;;40.10;9.30;;;9.40;99.90;;;;;;6203821;23;20947;-78
2022/02/22 12:19:14;;;;;;;45.57;9.33;;;9.40;99.90;;;;;;6202987;23;20526;-78
2022/02/22 12:21:46;;;;;;;39.13;9.37;;;9.40;99.90;;;;;;6203679;23;20187;-78
2022/02/22 12:24:15;;;;;;;45.63;9.40;;;9.50;99.90;;;;;;6203968;23;20244;-78
2022/02/22 12:26:42;;;;;;;36.60;8.37;;;9.50;99.90;;;;;;6202430;23;20185;-79
2022/02/22 12:29:10;;;;;;;36.13;9.13;;;9.50;99.90;;;;;;6203544;23;20174;-77
2022/02/22 12:31:39;;;;;;;36.30;9.10;;;9.50;99.90;;;;;;6204293;23;20174;-78
2022/02/22 12:34:09;;;;;;;36.17;8.97;;;9.50;99.90;;;;;;6203430;23;20166;-78
2022/02/22 12:36:37;;;;;;;28.43;8.03;;;9.60;99.90;;;;;;6203809;23;20170;-78
2022/02/22 12:39:06;;;;;;;34.47;8.27;;;9.70;99.90;;;;;;6203214;23;20239;-78
2022/02/22 12:41:36;;;;;;;28.97;7.47;;;9.70;99.90;;;;;;6204573;23;20194;-82
2022/02/22 12:44:08;;;;;;;31.70;8.37;;;9.70;99.90;;;;;;6203701;23;20171;-78
2022/02/22 12:46:35;;;;;;;40.07;10.53;;;9.70;99.90;;;;;;6203691;23;20171;-78
2022/02/22 12:49:05;;;;;;;35.77;9.50;;;9.70;99.90;;;;;;6203995;23;20202;-79
2022/02/22 12:51:34;;;;;;;31.03;9.23;;;9.70;99.90;;;;;;6205576;23;20174;-78